Time;durP1;ratioP1;P1;durP2;ratioP2;P2;SDS_P1;SDS_P2;PMS_P1;PMS_P2;Temp;Humidity;BMP_temperature;BMP_pressure;BME280_temperature;BME280_humidity;BME280_pressure;Samples;Min_cycle;Max_cycle;Signal;HPM_P1;HPM_P2
2021/12/30 00:01:25;;;;;;;89.60;45.35;;;6.60;99.90;;;;;;5046671;28;20449;-81
2021/12/30 00:03:51;;;;;;;86.80;46.35;;;6.60;99.90;;;;;;5047735;28;20029;-80
2021/12/30 00:06:21;;;;;;;80.43;42.70;;;6.60;99.90;;;;;;5048079;28;20017;-80
2021/12/30 00:08:48;;;;;;;84.15;43.55;;;6.60;99.90;;;;;;5047737;28;20381;-81
2021/12/30 00:11:17;;;;;;;76.22;41.22;;;6.70;99.90;;;;;;5045779;28;20064;-80
2021/12/30 00:13:48;;;;;;;66.03;35.50;;;6.70;99.90;;;;;;5049735;28;20036;-82
2021/12/30 00:16:16;;;;;;;73.32;37.47;;;6.70;99.90;;;;;;5047467;28;20029;-81
2021/12/30 00:18:44;;;;;;;74.47;39.30;;;6.70;99.90;;;;;;5029463;28;20021;-81
2021/12/30 00:21:12;;;;;;;74.18;39.53;;;6.70;99.90;;;;;;5047599;28;20044;-81
2021/12/30 00:23:41;;;;;;;73.85;39.60;;;6.70;99.90;;;;;;5045176;28;20025;-80
2021/12/30 00:26:15;;;;;;;79.72;44.20;;;6.70;99.90;;;;;;5028149;28;20039;-80
2021/12/30 00:28:41;;;;;;;85.38;45.67;;;6.00;99.90;;;;;;5032008;28;20225;-80
2021/12/30 00:31:07;;;;;;;91.55;48.33;;;6.70;99.90;;;;;;5056952;28;20032;-80
2021/12/30 00:33:34;;;;;;;95.22;48.40;;;7.10;99.90;;;;;;5039884;28;20017;-81
2021/12/30 00:36:02;;;;;;;91.72;48.35;;;6.60;99.90;;;;;;5031563;28;20029;-81
2021/12/30 00:38:28;;;;;;;85.18;46.30;;;6.70;99.90;;;;;;5028613;28;20017;-80
2021/12/30 00:40:54;;;;;;;93.40;47.95;;;7.00;99.90;;;;;;5026043;28;20283;-80
2021/12/30 00:43:20;;;;;;;90.32;47.65;;;6.60;99.90;;;;;;5046861;28;20029;-80
2021/12/30 00:46:07;;;;;;;95.13;50.95;;;6.60;99.90;;;;;;5029243;28;20029;-81
2021/12/30 00:48:33;;;;;;;;;;;6.70;99.90;;;;;;5045150;28;20101;-81
2021/12/30 00:50:59;;;;;;;134.73;58.47;;;5.50;99.90;;;;;;5026469;28;19940;-80
2021/12/30 00:53:25;;;;;;;146.60;63.78;;;6.70;99.90;;;;;;5043332;28;20692;-81
2021/12/30 00:55:51;;;;;;;126.15;59.53;;;6.60;99.90;;;;;;5044124;28;20051;-80
2021/12/30 00:58:17;;;;;;;142.38;63.83;;;6.70;99.90;;;;;;5045544;28;20060;-81
2021/12/30 01:00:45;;;;;;;114.25;55.25;;;6.70;99.90;;;;;;5044383;28;20210;-82
2021/12/30 01:03:17;;;;;;;99.28;50.42;;;5.80;99.90;;;;;;5044589;28;20526;-81
2021/12/30 01:05:47;;;;;;;97.00;49.38;;;6.70;99.90;;;;;;5045641;28;20033;-81
2021/12/30 01:08:14;;;;;;;95.90;50.80;;;6.70;99.90;;;;;;5046725;28;20313;-80
2021/12/30 01:10:44;;;;;;;97.65;49.47;;;6.70;99.90;;;;;;5047562;28;20119;-81
2021/12/30 01:13:23;;;;;;;109.05;52.33;;;6.70;99.90;;;;;;5047934;28;20226;-81
2021/12/30 01:16:01;;;;;;;98.85;51.33;;;6.60;99.90;;;;;;5028585;28;20116;-80
2021/12/30 01:21:12;;;;;;;97.25;48.80;;;6.70;99.90;;;;;;5045405;28;20078;-81
2021/12/30 01:23:41;;;;;;;97.53;48.50;;;6.70;99.90;;;;;;5043944;28;20025;-81
2021/12/30 01:26:21;;;;;;;102.40;51.72;;;6.80;99.90;;;;;;5046154;28;20032;-81
2021/12/30 01:28:50;;;;;;;101.88;50.67;;;6.60;99.90;;;;;;5025093;28;20021;-80
2021/12/30 01:31:17;;;;;;;101.28;50.90;;;6.70;99.90;;;;;;5043085;28;20112;-80
2021/12/30 01:33:44;;;;;;;100.25;49.95;;;6.70;99.90;;;;;;5043884;28;20029;-80
2021/12/30 01:36:11;;;;;;;109.25;50.25;;;6.70;99.90;;;;;;5024974;28;20533;-81
2021/12/30 01:38:40;;;;;;;97.60;49.28;;;6.70;99.90;;;;;;5025681;28;20029;-81
2021/12/30 01:41:11;;;;;;;91.60;49.70;;;6.70;99.90;;;;;;5043764;28;20040;-80
2021/12/30 01:43:37;;;;;;;85.57;44.92;;;6.70;99.90;;;;;;5041335;28;20028;-81
2021/12/30 01:46:05;;;;;;;83.85;45.72;;;7.30;99.90;;;;;;5042832;28;20111;-79
2021/12/30 01:48:31;;;;;;;82.43;43.28;;;6.70;99.90;;;;;;5042707;28;20475;-81
2021/12/30 01:50:57;;;;;;;85.45;44.17;;;6.60;99.90;;;;;;5043077;28;20058;-80
2021/12/30 01:53:25;;;;;;;87.57;48.33;;;6.70;99.90;;;;;;5025716;28;20033;-81
2021/12/30 01:55:51;;;;;;;85.53;44.90;;;6.70;99.90;;;;;;5026469;28;20573;-80
2021/12/30 01:58:18;;;;;;;90.53;46.95;;;6.60;99.90;;;;;;5028458;28;20037;-81
2021/12/30 02:00:46;;;;;;;87.78;45.80;;;6.70;99.90;;;;;;5024794;28;20032;-80
2021/12/30 02:03:13;;;;;;;85.68;45.55;;;6.50;99.90;;;;;;5042682;28;20326;-79
2021/12/30 02:05:39;;;;;;;80.78;44.95;;;6.60;99.90;;;;;;5047142;28;20025;-80
2021/12/30 02:08:06;;;;;;;85.75;43.78;;;6.50;99.90;;;;;;5030995;28;20286;-80
2021/12/30 02:10:35;;;;;;;76.22;42.00;;;6.60;99.90;;;;;;5048303;28;20190;-80
2021/12/30 02:13:03;;;;;;;78.07;43.25;;;6.60;99.90;;;;;;5049264;28;20298;-80
2021/12/30 02:15:28;;;;;;;86.20;42.65;;;8.40;99.90;;;;;;5012616;28;20025;-80
2021/12/30 02:17:54;;;;;;;90.20;45.10;;;6.60;99.90;;;;;;5027174;28;20044;-80
2021/12/30 02:20:52;;;;;;;102.28;50.00;;;4.20;99.90;;;;;;5044953;28;20503;-80
2021/12/30 02:23:19;;;;;;;85.90;45.65;;;6.60;99.90;;;;;;4943362;28;20371;-81
2021/12/30 02:25:47;;;;;;;84.80;42.70;;;6.70;99.90;;;;;;4945263;28;20118;-81
2021/12/30 02:28:16;;;;;;;76.97;42.90;;;6.50;99.90;;;;;;4946462;28;20099;-81
2021/12/30 02:30:43;;;;;;;87.25;42.70;;;6.50;99.90;;;;;;4941857;29;20241;-81
2021/12/30 02:33:12;;;;;;;75.75;40.47;;;6.50;99.90;;;;;;4943886;29;20143;-81
2021/12/30 02:35:38;;;;;;;73.95;39.78;;;6.50;99.90;;;;;;4942030;28;20042;-81
2021/12/30 02:38:05;;;;;;;97.15;45.75;;;6.50;99.90;;;;;;4942658;29;20024;-81
2021/12/30 02:40:36;;;;;;;117.38;52.08;;;6.60;99.90;;;;;;4944112;28;20039;-80
2021/12/30 02:43:05;;;;;;;117.78;48.78;;;6.60;99.90;;;;;;4944022;28;20028;-80
2021/12/30 02:45:31;;;;;;;135.40;54.60;;;6.60;99.90;;;;;;4942451;28;20055;-80
2021/12/30 02:47:58;;;;;;;127.40;51.72;;;6.60;99.90;;;;;;4928363;29;20477;-81
2021/12/30 02:50:31;;;;;;;133.77;54.72;;;6.60;99.90;;;;;;4943095;28;20308;-81
2021/12/30 02:52:57;;;;;;;133.00;54.20;;;6.60;99.90;;;;;;4927719;28;20586;-81
2021/12/30 02:55:23;;;;;;;125.88;52.72;;;6.60;99.90;;;;;;4928512;29;20032;-80
2021/12/30 02:57:49;;;;;;;100.50;47.20;;;6.60;99.90;;;;;;4951698;28;20071;-80
2021/12/30 03:00:17;;;;;;;47.05;24.95;;;6.60;99.90;;;;;;5033938;28;20100;-80
2021/12/30 03:02:42;;;;;;;47.70;23.70;;;6.60;99.90;;;;;;5034729;28;20033;-81
2021/12/30 03:05:08;;;;;;;45.38;22.95;;;6.50;99.90;;;;;;5034850;28;20049;-81
2021/12/30 03:07:35;;;;;;;42.15;21.38;;;6.50;99.90;;;;;;5031660;28;20018;-81
2021/12/30 03:10:03;;;;;;;39.95;21.40;;;6.50;99.90;;;;;;5014402;28;20033;-80
2021/12/30 03:12:31;;;;;;;42.13;21.15;;;6.60;99.90;;;;;;5032720;28;20022;-81
2021/12/30 03:14:58;;;;;;;38.25;19.90;;;6.50;99.90;;;;;;5032274;28;20017;-79
2021/12/30 03:17:24;;;;;;;32.80;18.67;;;6.50;99.90;;;;;;5033561;28;20049;-81
2021/12/30 03:19:54;;;;;;;36.53;19.25;;;6.60;99.90;;;;;;5032592;28;20026;-80
2021/12/30 03:22:25;;;;;;;45.75;22.05;;;6.60;99.90;;;;;;5016636;28;20653;-81
2021/12/30 03:24:51;;;;;;;54.08;26.15;;;6.20;99.90;;;;;;5017342;28;20451;-82
2021/12/30 03:27:18;;;;;;;61.60;29.92;;;6.70;99.90;;;;;;5035843;28;20484;-80
2021/12/30 03:29:43;;;;;;;64.45;29.58;;;6.70;99.90;;;;;;5037887;28;20093;-81
2021/12/30 03:32:09;;;;;;;64.50;31.88;;;6.70;99.90;;;;;;5019966;28;20049;-82
2021/12/30 03:34:36;;;;;;;73.68;34.95;;;6.70;99.90;;;;;;5022852;28;20033;-82
2021/12/30 03:37:05;;;;;;;62.80;30.20;;;6.70;99.90;;;;;;5039607;28;20022;-81
2021/12/30 03:39:32;;;;;;;52.83;27.65;;;6.70;99.90;;;;;;5039070;28;20045;-82
2021/12/30 03:42:01;;;;;;;54.10;29.40;;;6.70;99.90;;;;;;5019071;28;20097;-80
2021/12/30 03:44:27;;;;;;;50.35;28.25;;;6.70;99.90;;;;;;5015362;28;20226;-82
2021/12/30 03:46:53;;;;;;;51.70;26.80;;;6.70;99.90;;;;;;5034205;28;20032;-81
2021/12/30 03:49:19;;;;;;;47.65;26.08;;;6.80;99.90;;;;;;5044751;28;20045;-80
2021/12/30 03:51:51;;;;;;;47.40;26.00;;;6.80;99.90;;;;;;5054976;28;20098;-82
2021/12/30 03:54:18;;;;;;;51.15;26.98;;;6.70;99.90;;;;;;5057241;28;20317;-81
2021/12/30 03:56:46;;;;;;;47.90;26.45;;;6.70;99.90;;;;;;5040923;28;20143;-80
2021/12/30 03:59:19;;;;;;;54.22;28.35;;;6.70;99.90;;;;;;5040472;28;20084;-80
2021/12/30 04:01:45;;;;;;;49.55;26.95;;;6.80;99.90;;;;;;5049673;28;20017;-81
2021/12/30 04:04:11;;;;;;;49.75;26.98;;;6.70;99.90;;;;;;5042255;28;20051;-82
2021/12/30 04:06:42;;;;;;;48.42;27.13;;;6.70;99.90;;;;;;5036556;28;20403;-81
2021/12/30 04:09:08;;;;;;;52.35;26.85;;;6.70;99.90;;;;;;5039250;28;20079;-81
2021/12/30 04:11:37;;;;;;;52.05;27.30;;;6.70;99.90;;;;;;5055131;28;20021;-80
2021/12/30 04:14:04;;;;;;;49.15;27.23;;;6.70;99.90;;;;;;5052561;28;20013;-81
2021/12/30 04:16:37;;;;;;;56.25;28.27;;;6.70;99.90;;;;;;5052510;28;20033;-81
2021/12/30 04:19:05;;;;;;;54.28;29.17;;;6.70;99.90;;;;;;5050761;28;20029;-81
2021/12/30 04:21:32;;;;;;;52.90;29.50;;;6.60;99.90;;;;;;5051200;28;20364;-81
2021/12/30 04:23:59;;;;;;;53.97;29.42;;;6.60;99.90;;;;;;5034142;28;20041;-80
2021/12/30 04:26:34;;;;;;;46.33;27.95;;;6.70;99.90;;;;;;5033344;28;20079;-81
2021/12/30 04:28:59;;;;;;;50.03;28.15;;;6.70;99.90;;;;;;5049597;28;20535;-81
2021/12/30 04:31:26;;;;;;;53.83;28.52;;;6.60;99.90;;;;;;5035616;28;20103;-80
2021/12/30 04:33:52;;;;;;;53.90;29.98;;;8.20;99.90;;;;;;5052735;28;20032;-81
2021/12/30 04:36:17;;;;;;;52.47;28.42;;;6.60;99.90;;;;;;5051980;28;20024;-81
2021/12/30 04:38:46;;;;;;;51.78;27.95;;;6.90;99.90;;;;;;5035157;28;20025;-81
2021/12/30 04:41:13;;;;;;;47.08;26.83;;;6.70;99.90;;;;;;5050624;28;20032;-81
2021/12/30 04:43:41;;;;;;;48.22;26.23;;;6.70;99.90;;;;;;5047031;28;20419;-81
2021/12/30 04:46:09;;;;;;;47.40;26.58;;;6.70;99.90;;;;;;5047854;28;20051;-81
2021/12/30 04:48:35;;;;;;;53.58;29.95;;;6.40;99.90;;;;;;5048436;28;20348;-80
2021/12/30 04:51:05;;;;;;;53.60;28.20;;;4.60;99.90;;;;;;5033624;28;20407;-80
2021/12/30 04:53:31;;;;;;;48.78;28.20;;;6.60;99.90;;;;;;5051454;28;20025;-80
2021/12/30 04:55:57;;;;;;;50.35;28.13;;;6.80;99.90;;;;;;5050586;28;20084;-80
2021/12/30 04:58:23;;;;;;;48.50;27.67;;;6.10;99.90;;;;;;5054161;28;20017;-81
2021/12/30 05:00:50;;;;;;;48.08;26.70;;;6.80;99.90;;;;;;5054625;28;20119;-81
2021/12/30 05:03:16;;;;;;;51.22;28.52;;;6.60;99.90;;;;;;5055398;28;20017;-81
2021/12/30 05:05:48;;;;;;;52.13;27.88;;;6.60;99.90;;;;;;5056039;28;20021;-80
2021/12/30 05:08:15;;;;;;;50.00;27.23;;;6.60;99.90;;;;;;5055670;28;20048;-82
2021/12/30 05:10:46;;;;;;;52.95;28.10;;;6.50;99.90;;;;;;5054359;28;20158;-81
2021/12/30 05:13:14;;;;;;;54.30;27.60;;;6.70;99.90;;;;;;5056129;28;20021;-81
2021/12/30 05:15:44;;;;;;;51.60;27.52;;;6.60;99.90;;;;;;5055152;28;20025;-80
2021/12/30 05:18:15;;;;;;;47.05;24.38;;;6.60;99.90;;;;;;5054630;28;20013;-81
2021/12/30 05:20:42;;;;;;;42.92;24.17;;;6.60;99.90;;;;;;5037010;28;20025;-80
2021/12/30 05:23:09;;;;;;;46.25;24.70;;;6.60;99.90;;;;;;5055341;28;20105;-80
2021/12/30 05:25:39;;;;;;;52.42;26.20;;;7.10;99.90;;;;;;5055462;28;20029;-80
2021/12/30 05:28:05;;;;;;;43.97;24.33;;;6.60;99.90;;;;;;5057506;28;20036;-80
2021/12/30 05:30:31;;;;;;;42.22;22.25;;;6.60;99.90;;;;;;5056193;28;20029;-81
2021/12/30 05:32:58;;;;;;;38.50;20.98;;;6.50;99.90;;;;;;5056975;28;20033;-81
2021/12/30 05:35:24;;;;;;;38.83;21.90;;;6.50;99.90;;;;;;5056368;28;20017;-82
2021/12/30 05:38:01;;;;;;;39.88;21.73;;;6.50;99.90;;;;;;5056795;28;20025;-82
2021/12/30 05:40:28;;;;;;;41.92;23.00;;;6.50;99.90;;;;;;5057314;28;20055;-81
2021/12/30 05:42:59;;;;;;;50.28;26.13;;;6.50;99.90;;;;;;5053340;28;20025;-82
2021/12/30 05:45:26;;;;;;;52.05;26.70;;;6.50;99.90;;;;;;5057576;28;20253;-80
2021/12/30 05:48:05;;;;;;;55.20;27.42;;;6.50;99.90;;;;;;5058869;28;20023;-78
2021/12/30 05:50:33;;;;;;;57.92;28.20;;;6.50;99.90;;;;;;5019582;28;20064;-79
2021/12/30 05:53:05;;;;;;;53.20;27.27;;;3.80;99.90;;;;;;5042740;28;20171;-80
2021/12/30 05:55:31;;;;;;;53.58;27.33;;;6.50;99.90;;;;;;5038967;28;20030;-80
2021/12/30 05:57:58;;;;;;;50.38;26.48;;;6.50;99.90;;;;;;5039886;28;20024;-80
2021/12/30 06:00:26;;;;;;;51.22;26.27;;;6.50;99.90;;;;;;5039244;28;20084;-79
2021/12/30 06:02:55;;;;;;;52.10;26.20;;;6.50;99.90;;;;;;5038010;28;20014;-78
2021/12/30 06:05:21;;;;;;;48.17;26.63;;;6.50;99.90;;;;;;5017617;28;20749;-80
2021/12/30 06:07:52;;;;;;;48.40;25.58;;;6.50;99.90;;;;;;5018727;28;20136;-80
2021/12/30 06:10:20;;;;;;;46.45;25.48;;;6.40;99.90;;;;;;5020865;28;20037;-80
2021/12/30 06:12:50;;;;;;;46.75;24.40;;;6.50;99.90;;;;;;5040551;28;20018;-81
2021/12/30 06:15:24;;;;;;;45.70;23.10;;;6.50;99.90;;;;;;5018199;28;20512;-80
2021/12/30 06:17:50;;;;;;;45.90;26.08;;;6.40;99.90;;;;;;5035902;28;20030;-80
2021/12/30 06:20:19;;;;;;;45.80;24.65;;;6.40;99.90;;;;;;5014806;28;20030;-81
2021/12/30 06:22:46;;;;;;;47.00;25.45;;;6.40;99.90;;;;;;5034427;28;20236;-80
2021/12/30 06:25:15;;;;;;;49.85;26.73;;;6.40;99.90;;;;;;5034415;28;20040;-80
2021/12/30 06:27:44;;;;;;;46.47;24.40;;;6.40;99.90;;;;;;5037939;28;20025;-80
2021/12/30 06:30:16;;;;;;;38.75;20.83;;;6.40;99.90;;;;;;5041334;28;20090;-81
2021/12/30 06:32:42;;;;;;;39.67;22.15;;;6.40;99.90;;;;;;5035592;28;20021;-81
2021/12/30 06:35:12;;;;;;;44.42;23.77;;;6.40;99.90;;;;;;5038394;28;20021;-80
2021/12/30 06:37:39;;;;;;;37.88;21.08;;;6.40;99.90;;;;;;5036157;28;20068;-80
2021/12/30 06:40:07;;;;;;;37.55;21.00;;;6.40;99.90;;;;;;5039222;28;20094;-80
2021/12/30 06:42:33;;;;;;;39.70;21.45;;;6.40;99.90;;;;;;5038240;28;20052;-80
2021/12/30 06:44:59;;;;;;;34.75;19.52;;;5.30;99.90;;;;;;5041244;28;20025;-80
2021/12/30 06:47:46;;;;;;;36.58;19.20;;;6.60;99.90;;;;;;5045659;28;20028;-80
2021/12/30 06:50:20;;;;;;;30.98;17.92;;;6.40;99.90;;;;;;5056881;28;20045;-80
2021/12/30 06:52:46;;;;;;;30.35;18.65;;;6.40;99.90;;;;;;5041835;28;20025;-80
2021/12/30 06:55:12;;;;;;;32.25;19.23;;;5.00;99.90;;;;;;5061347;28;20110;-80
2021/12/30 06:57:40;;;;;;;29.27;17.83;;;6.50;99.90;;;;;;5059559;28;20017;-80
2021/12/30 07:00:09;;;;;;;32.33;18.45;;;6.50;99.90;;;;;;5057984;28;20028;-79
2021/12/30 07:02:36;;;;;;;34.05;21.42;;;6.50;99.90;;;;;;5060909;28;20033;-79
2021/12/30 07:05:11;;;;;;;40.88;23.05;;;6.50;99.90;;;;;;5042469;28;20029;-80
2021/12/30 07:07:43;;;;;;;40.83;23.17;;;6.50;99.90;;;;;;5040467;28;20043;-80
2021/12/30 07:10:10;;;;;;;38.00;22.55;;;6.50;99.90;;;;;;5036217;28;20028;-79
2021/12/30 07:12:39;;;;;;;39.80;22.17;;;9.40;99.90;;;;;;5037461;28;20025;-80
2021/12/30 07:15:08;;;;;;;43.08;22.60;;;6.60;99.90;;;;;;5036167;28;20527;-79
2021/12/30 07:17:37;;;;;;;52.45;26.38;;;6.60;99.90;;;;;;5059666;28;20025;-80
2021/12/30 07:20:11;;;;;;;44.45;25.55;;;6.70;99.90;;;;;;5057276;28;20032;-79
2021/12/30 07:22:40;;;;;;;50.88;27.40;;;6.70;99.90;;;;;;5063248;28;20021;-79
2021/12/30 07:25:17;;;;;;;53.42;27.13;;;6.60;99.90;;;;;;5043982;28;20040;-80
2021/12/30 07:27:52;;;;;;;43.28;25.27;;;6.60;99.90;;;;;;5047501;28;20080;-79
2021/12/30 07:30:26;;;;;;;47.42;24.77;;;9.70;99.90;;;;;;5058001;28;20051;-80
2021/12/30 07:32:53;;;;;;;51.20;27.17;;;6.80;99.90;;;;;;5048539;28;20032;-80
2021/12/30 07:35:20;;;;;;;54.33;29.02;;;6.80;99.90;;;;;;5046699;28;20033;-79
2021/12/30 07:37:48;;;;;;;58.75;31.17;;;6.80;99.90;;;;;;5043779;28;20046;-79
2021/12/30 07:40:16;;;;;;;54.92;29.42;;;6.80;99.90;;;;;;5056318;28;20707;-79
2021/12/30 07:42:42;;;;;;;48.58;24.83;;;6.90;99.90;;;;;;5055180;28;20205;-79
2021/12/30 07:45:11;;;;;;;35.83;19.75;;;6.90;99.90;;;;;;5059790;28;20028;-80
2021/12/30 07:47:45;;;;;;;39.38;20.83;;;6.90;99.90;;;;;;5056908;28;20041;-80
2021/12/30 07:50:12;;;;;;;41.65;23.42;;;6.90;99.90;;;;;;5026888;28;20045;-80
2021/12/30 07:52:42;;;;;;;45.92;24.67;;;7.00;99.90;;;;;;5037584;28;20073;-80
2021/12/30 07:55:17;;;;;;;46.90;25.25;;;7.10;99.90;;;;;;5040004;28;20013;-79
2021/12/30 07:57:43;;;;;;;43.80;25.25;;;7.20;99.90;;;;;;5040090;28;20077;-80
2021/12/30 08:00:12;;;;;;;49.55;27.63;;;7.20;99.90;;;;;;5023132;28;20030;-80
2021/12/30 08:02:44;;;;;;;51.63;29.63;;;7.30;99.90;;;;;;5028917;28;20268;-79
2021/12/30 08:05:13;;;;;;;57.70;32.40;;;7.40;99.90;;;;;;5011276;28;20107;-80
2021/12/30 08:07:39;;;;;;;59.10;33.10;;;7.50;99.90;;;;;;5031606;28;20570;-79
2021/12/30 08:10:10;;;;;;;59.63;34.70;;;7.50;99.90;;;;;;5015919;28;20026;-80
2021/12/30 08:12:39;;;;;;;74.43;40.03;;;7.50;99.90;;;;;;5018209;28;20345;-79
2021/12/30 08:15:09;;;;;;;66.97;38.63;;;7.60;99.90;;;;;;5039480;28;20491;-80
2021/12/30 08:17:39;;;;;;;62.97;35.38;;;7.60;99.90;;;;;;4997992;28;20332;-81
2021/12/30 08:20:12;;;;;;;64.60;35.15;;;7.70;99.90;;;;;;5036138;28;20678;-80
2021/12/30 08:22:38;;;;;;;70.15;35.85;;;7.70;99.90;;;;;;5041987;28;20096;-80
2021/12/30 08:25:09;;;;;;;58.63;32.58;;;7.80;99.90;;;;;;5039077;28;20097;-79
2021/12/30 08:27:36;;;;;;;51.78;29.60;;;7.80;99.90;;;;;;5039770;28;20111;-80
2021/12/30 08:30:31;;;;;;;50.88;28.85;;;7.90;99.90;;;;;;5026325;28;20022;-80
2021/12/30 08:33:01;;;;;;;49.88;26.80;;;8.00;99.90;;;;;;5045741;28;20703;-79
2021/12/30 08:35:33;;;;;;;43.05;25.45;;;8.10;99.60;;;;;;5026739;28;20080;-81
2021/12/30 08:38:03;;;;;;;45.60;27.30;;;8.20;99.10;;;;;;5030406;28;20029;-79
2021/12/30 08:40:30;;;;;;;45.72;26.20;;;8.30;98.40;;;;;;5049775;28;20025;-81
2021/12/30 08:43:00;;;;;;;42.90;25.60;;;8.30;98.40;;;;;;5049650;28;20032;-79
2021/12/30 08:45:36;;;;;;;49.63;26.48;;;8.40;98.30;;;;;;5046834;28;20061;-82
2021/12/30 08:48:03;;;;;;;45.97;27.67;;;8.50;98.20;;;;;;5050281;28;20039;-82
2021/12/30 08:50:29;;;;;;;53.90;30.80;;;8.60;98.10;;;;;;5065270;28;20037;-82
2021/12/30 08:52:56;;;;;;;57.45;31.15;;;8.70;98.10;;;;;;5067307;28;20027;-83
2021/12/30 08:55:22;;;;;;;59.17;32.00;;;8.60;97.80;;;;;;5068487;28;20021;-82
2021/12/30 08:57:49;;;;;;;56.83;32.55;;;8.60;97.70;;;;;;5065426;28;20051;-82
2021/12/30 09:00:42;;;;;;;50.72;30.15;;;8.60;97.80;;;;;;5064553;28;20135;-80
2021/12/30 09:03:11;;;;;;;58.78;32.50;;;8.60;97.50;;;;;;5068589;28;20096;-82
2021/12/30 09:05:46;;;;;;;59.88;32.42;;;8.60;97.30;;;;;;5066922;28;20024;-80
2021/12/30 09:08:14;;;;;;;51.85;31.70;;;8.50;97.40;;;;;;5065177;28;20120;-81
2021/12/30 09:10:45;;;;;;;63.22;36.60;;;8.70;97.70;;;;;;5064844;28;20067;-80
2021/12/30 09:13:19;;;;;;;70.85;36.75;;;8.70;97.50;;;;;;5026872;28;20052;-82
2021/12/30 09:15:46;;;;;;;63.53;33.17;;;8.30;97.10;;;;;;5046799;28;20028;-79
2021/12/30 09:18:16;;;;;;;51.50;29.35;;;9.20;97.20;;;;;;5046455;28;20086;-79
2021/12/30 09:20:47;;;;;;;57.63;31.58;;;8.80;96.90;;;;;;5055298;28;20032;-81
2021/12/30 09:23:15;;;;;;;62.90;33.40;;;9.10;96.60;;;;;;5060809;28;20021;-81
2021/12/30 09:25:43;;;;;;;56.33;33.05;;;9.20;96.60;;;;;;5062260;28;20032;-80
2021/12/30 09:28:15;;;;;;;52.95;31.75;;;9.10;96.00;;;;;;5050020;28;20025;-81
2021/12/30 09:30:52;;;;;;;52.25;31.30;;;9.30;95.80;;;;;;5057080;28;20048;-82
2021/12/30 09:33:38;;;;;;;56.63;32.88;;;9.40;95.20;;;;;;5055039;28;20530;-82
2021/12/30 09:36:30;;;;;;;96.78;50.88;;;9.90;95.20;;;;;;5054330;28;20025;-82
2021/12/30 09:39:01;;;;;;;82.90;49.63;;;9.70;95.70;;;;;;5052229;28;20017;-81
2021/12/30 09:41:27;;;;;;;88.38;50.35;;;9.70;95.60;;;;;;5030103;28;20017;-82
2021/12/30 09:43:53;;;;;;;84.32;49.53;;;9.90;95.60;;;;;;5028478;28;20039;-82
2021/12/30 09:46:25;;;;;;;88.40;49.72;;;9.90;94.80;;;;;;5053106;28;20021;-82
2021/12/30 09:48:50;;;;;;;84.70;50.33;;;9.90;94.70;;;;;;5036536;28;20712;-80
2021/12/30 09:51:20;;;;;;;85.88;50.47;;;10.00;95.50;;;;;;5017295;28;20029;-80
2021/12/30 09:53:49;;;;;;;69.18;40.80;;;10.40;94.00;;;;;;5034583;28;20022;-80
2021/12/30 09:56:15;;;;;;;42.80;25.15;;;10.20;93.00;;;;;;5031748;28;20045;-80
2021/12/30 09:58:41;;;;;;;41.53;24.52;;;10.40;91.90;;;;;;5028295;28;20119;-81
2021/12/30 10:01:07;;;;;;;55.05;32.30;;;10.70;91.40;;;;;;5029729;28;20013;-81
2021/12/30 10:03:35;;;;;;;54.53;31.67;;;11.00;91.20;;;;;;5031875;28;20026;-82
2021/12/30 10:06:09;;;;;;;54.80;31.10;;;11.20;90.50;;;;;;5015272;28;20132;-80
2021/12/30 10:08:43;;;;;;;37.58;22.67;;;11.50;89.00;;;;;;5028782;28;20051;-82
2021/12/30 10:11:13;;;;;;;37.50;23.00;;;11.60;87.00;;;;;;5026029;28;20277;-82
2021/12/30 10:13:53;;;;;;;39.20;23.45;;;11.70;85.70;;;;;;5028625;28;20033;-80
2021/12/30 10:16:21;;;;;;;42.30;24.52;;;12.20;88.10;;;;;;5014664;28;20038;-80
2021/12/30 10:18:50;;;;;;;47.70;25.42;;;11.90;87.10;;;;;;5031420;28;20021;-82
2021/12/30 10:21:40;;;;;;;41.58;23.50;;;11.80;85.40;;;;;;5026449;28;20564;-80
2021/12/30 10:24:10;;;;;;;32.75;20.42;;;11.70;85.90;;;;;;5026847;28;20033;-81
2021/12/30 10:27:15;;;;;;;39.15;23.60;;;11.50;85.90;;;;;;5030606;28;20706;-80
2021/12/30 10:29:48;;;;;;;40.13;23.13;;;11.40;86.70;;;;;;5014664;28;20556;-80
2021/12/30 10:32:25;;;;;;;41.15;24.58;;;11.20;87.90;;;;;;5036919;28;20040;-80
2021/12/30 10:35:13;;;;;;;37.83;23.05;;;11.20;87.90;;;;;;5026699;28;20032;-81
2021/12/30 10:37:43;;;;;;;40.03;22.30;;;11.20;87.30;;;;;;5024503;28;20076;-81
2021/12/30 10:40:29;;;;;;;36.17;20.55;;;11.20;87.10;;;;;;5034425;28;20017;-80
2021/12/30 10:43:36;;;;;;;35.03;20.75;;;11.20;86.40;;;;;;5016053;28;20668;-82
2021/12/30 10:46:08;;;;;;;;;;;14.50;88.60;;;;;;5015134;28;20607;-82
2021/12/30 10:48:57;;;;;;;28.45;16.10;;;11.10;86.00;;;;;;5034166;28;19908;-82
2021/12/30 10:51:24;;;;;;;20.73;11.88;;;11.00;85.70;;;;;;4957027;29;20043;-80
2021/12/30 10:53:52;;;;;;;19.58;10.95;;;10.80;84.50;;;;;;4954095;29;20043;-79
2021/12/30 10:56:24;;;;;;;25.05;14.15;;;10.90;85.70;;;;;;4935564;29;20043;-83
2021/12/30 10:59:14;;;;;;;25.33;15.20;;;10.90;85.40;;;;;;4951576;28;20051;-81
2021/12/30 11:01:45;;;;;;;24.30;14.80;;;10.90;86.10;;;;;;4950368;28;20031;-81
2021/12/30 11:04:12;;;;;;;29.67;18.02;;;11.00;85.30;;;;;;4947926;28;20031;-82
2021/12/30 11:06:39;;;;;;;32.67;20.05;;;10.90;85.40;;;;;;4915270;29;20039;-84
2021/12/30 11:09:13;;;;;;;32.15;19.58;;;10.90;86.20;;;;;;4949575;29;20059;-82
2021/12/30 11:11:47;;;;;;;35.67;16.45;;;10.10;87.50;;;;;;4950040;28;20134;-79
2021/12/30 11:14:24;;;;;;;37.33;21.17;;;10.70;85.80;;;;;;4948602;28;20030;-80
2021/12/30 11:16:57;;;;;;;17.00;9.95;;;10.40;87.00;;;;;;4950880;28;20027;-79
2021/12/30 11:19:23;;;;;;;10.45;6.13;;;10.30;86.90;;;;;;4951830;29;20110;-80
2021/12/30 11:21:51;;;;;;;10.73;5.35;;;10.10;87.40;;;;;;4947258;28;20723;-81
2021/12/30 11:24:18;;;;;;;9.05;5.18;;;9.90;87.90;;;;;;4948758;28;20043;-81
2021/12/30 11:26:44;;;;;;;12.90;6.72;;;9.90;89.00;;;;;;4952497;28;20062;-80
2021/12/30 11:29:11;;;;;;;11.57;5.32;;;9.80;89.10;;;;;;5032621;28;20045;-80
2021/12/30 11:31:37;;;;;;;10.35;5.70;;;9.80;88.30;;;;;;5058385;28;20075;-77
2021/12/30 11:34:06;;;;;;;10.82;6.45;;;9.60;89.00;;;;;;5049788;28;20025;-78
2021/12/30 11:36:33;;;;;;;10.30;5.00;;;9.70;89.50;;;;;;5040968;28;20047;-80
2021/12/30 11:39:03;;;;;;;7.82;4.53;;;9.50;88.90;;;;;;5062019;28;20019;-82
2021/12/30 11:41:32;;;;;;;8.50;4.65;;;9.70;88.40;;;;;;5057773;28;20025;-80
2021/12/30 11:43:58;;;;;;;10.52;5.28;;;9.70;88.70;;;;;;5038048;28;20025;-79
2021/12/30 11:46:37;;;;;;;11.90;6.32;;;9.90;88.90;;;;;;5054665;28;20107;-79
2021/12/30 11:49:05;;;;;;;16.63;6.35;;;10.00;88.60;;;;;;5057187;28;20040;-80
2021/12/30 11:51:51;;;;;;;15.85;7.28;;;10.00;88.20;;;;;;5039604;28;20131;-82
2021/12/30 11:54:38;;;;;;;13.80;7.63;;;10.00;88.20;;;;;;5042221;28;20026;-80
2021/12/30 11:57:28;;;;;;;14.82;7.55;;;10.10;88.60;;;;;;5058769;28;20021;-82
2021/12/30 11:59:57;;;;;;;13.45;6.13;;;10.20;88.50;;;;;;5044060;28;20534;-78
2021/12/30 12:02:38;;;;;;;17.25;8.23;;;10.30;86.80;;;;;;5063278;28;20017;-80
2021/12/30 12:05:42;;;;;;;14.43;7.95;;;9.90;88.20;;;;;;5063882;28;20036;-81
2021/12/30 12:08:14;;;;;;;16.02;7.95;;;10.00;88.60;;;;;;5057517;28;20017;-81
2021/12/30 12:11:01;;;;;;;13.13;7.78;;;10.10;89.10;;;;;;5060384;28;20033;-79
2021/12/30 12:13:35;;;;;;;14.27;8.18;;;10.00;87.80;;;;;;5059784;28;20028;-79
2021/12/30 12:16:04;;;;;;;14.68;8.20;;;10.10;88.50;;;;;;5059784;28;20114;-80
2021/12/30 12:18:32;;;;;;;15.98;9.43;;;10.10;88.80;;;;;;5064323;28;20108;-80
2021/12/30 12:21:01;;;;;;;23.15;11.23;;;10.10;88.60;;;;;;5044625;28;20025;-80
2021/12/30 12:23:45;;;;;;;21.17;10.43;;;10.20;89.30;;;;;;5061002;28;20021;-81
2021/12/30 12:26:22;;;;;;;17.98;9.23;;;10.20;89.10;;;;;;5062832;28;20025;-80
2021/12/30 12:28:48;;;;;;;17.85;9.90;;;10.10;89.00;;;;;;5064402;28;20100;-80
2021/12/30 12:31:14;;;;;;;17.67;9.32;;;10.10;89.80;;;;;;5046501;28;20017;-82
2021/12/30 12:33:42;;;;;;;19.48;10.43;;;10.20;89.10;;;;;;5063085;28;20036;-79
2021/12/30 12:36:16;;;;;;;17.35;9.43;;;10.20;89.70;;;;;;5059736;28;20013;-82
2021/12/30 12:38:48;;;;;;;20.98;11.02;;;10.30;89.90;;;;;;5032435;28;20448;-79
2021/12/30 12:41:19;;;;;;;20.65;10.60;;;10.20;88.60;;;;;;5061004;28;20115;-81
2021/12/30 12:43:48;;;;;;;20.42;10.38;;;10.20;89.50;;;;;;5044664;28;20036;-80
2021/12/30 12:46:38;;;;;;;19.65;9.85;;;10.20;89.70;;;;;;5061742;28;20029;-80
2021/12/30 12:49:06;;;;;;;15.80;8.57;;;10.20;89.50;;;;;;5044856;28;20634;-79
2021/12/30 12:51:35;;;;;;;15.20;8.98;;;10.10;89.30;;;;;;5058973;28;20088;-80
2021/12/30 12:54:06;;;;;;;17.27;9.38;;;10.00;89.80;;;;;;5057329;28;20108;-81